LGKR/CFU METAR and TAF weather

Enter ICAO airport designator
Station Type Date Time Source
LGKR METAR 2022/01/26 07:50 UTC NOAA

LGKR 260750Z 00000KT CAVOK 00/M05 Q1024 NOSIG


Station Type Date Time Source
LGKR Decoded METAR 2022/01/26 07:50 UTC NOAA

Kerkyra Airport , Greece (LGKR) 39-37N 019-55E 4M
Jan 26, 2022 - 02:50 AM EST / 2022.01.26 0750 UTC
Wind: Calm:0
Visibility: greater than 7 mile(s):0
Temperature: 32 F (0 C)
Dew Point: 23 F (-5 C)
Relative Humidity: 69%
Pressure (altimeter): 30.24 in. Hg (1024 hPa)
ob: LGKR 260750Z 00000KT CAVOK 00/M05 Q1024 NOSIG
cycle: 8

Station Type Date Time Source
LGKR TAF 2022/01/26 06:13 UTC NOAA

TAF LGKR 260500Z 2606/2706 VRB05KT 9999 FEW020
TEMPO 2612/2618 33012KT

Example: see airport list